To NAV CANADA Home Page Login to a new session Search on AWWS site Disclaimer Vers la page française équivalente Tips FAQ What's new on the site To the Forecasts and Observations / NOTAM section To "File a Flight Plan" website Publications and other links Update of the User's profile FIC Telephone Numbers My Weather Data Folder Route Weather Data Regional Weather Data Local Weather Data To the Forecasts and Observations / NOTAM section
Request Generated 11/13/2018 at 18:03:54 UTC . Weather information available at that time is displayed.

METAR/TAF

TALOYOAK/NU    

METAR CYYH 131800Z 26003KT 190V280 15SM IC FEW011 FEW030 SCT080 SCT210 M26/M30 A3015 RMK SC1SC1AC2CI1 SC TR FROIN SLP217=
SPECI CYYH 131717Z 29009KT 10SM IC DRSN FEW011 FEW030 SCT080 SCT210 M26/M29 A3015 RMK SC1SC1AC2CI1 SC TR FROIN ONCL DRSN SLP217=
METAR CYYH 131700Z 30007KT 10SM -SN VCFG FEW011 FEW030 FEW080 FEW210 M26/M29 A3015 RMK SC1SC1AC1CI1 SC TR AC TR INTMT -SN SLP218=
METAR CYYH 131600Z 32014KT 10SM -SN DRSN VCFG FEW011 SCT022 BKN070 BKN210 M25/M29 A3015 RMK SC2SC1AC2CI1 VIS SE 5 FG SLP216=

TAF CYYH 131738Z 1318/1406 30010KT P6SM IC SCT012 BKN060 TEMPO
1318/1406 3SM -SN BR FEW006 BKN010
RMK NXT FCST BY 140000Z=
Your time UTC time
Weather data provided by Environment Canada and NAV CANADA